Cabaniss Field Nolf Airport


Codes: KNGW/
Name: Cabaniss Field Nolf Airport
City: Corpus Christi
Country: United States
Elevation: 30 ft.

Photos at Cabaniss Field Nolf Airport


   Photos courtesy of SpottingLog. You can add your own sightings and photos by signing up for a free trial today.



No photos found.

Weather at Cabaniss Field Nolf Airport


Time (UTC)DescriptionTempratureWindCloud coverageVisibilityPressureHumidity
13-Jun-2024 03:00Broken Clouds30°C9 mph, SE75%10000m1010hPa77%
13-Jun-2024 06:00Scattered Clouds29°C9 mph, SE50%10000m1011hPa77%
13-Jun-2024 09:00Scattered Clouds28°C7 mph, SE25%10000m1011hPa79%
13-Jun-2024 12:00Light Rain26°C4 mph, S1%5641m1011hPa85%
13-Jun-2024 15:00Light Rain31°C2 mph, SE0%10000m1013hPa60%
13-Jun-2024 18:00Light Rain34°C13 mph, E13%10000m1012hPa47%
13-Jun-2024 21:00Few Clouds34°C16 mph, E17%10000m1011hPa46%
14-Jun-2024 00:00Clear Sky31°C16 mph, E9%10000m1011hPa56%
14-Jun-2024 03:00Clear Sky28°C11 mph, SE0%10000m1012hPa73%
14-Jun-2024 06:00Clear Sky27°C9 mph, SE0%10000m1012hPa77%
14-Jun-2024 09:00Clear Sky26°C7 mph, SE0%10000m1011hPa81%
14-Jun-2024 12:00Clear Sky26°C2 mph, SE5%10000m1012hPa82%
14-Jun-2024 15:00Light Rain31°C7 mph, E11%10000m1013hPa58%
14-Jun-2024 18:00Few Clouds33°C13 mph, E11%10000m1013hPa48%
14-Jun-2024 21:00Clear Sky33°C16 mph, E0%10000m1012hPa50%
15-Jun-2024 00:00Clear Sky31°C16 mph, E0%10000m1011hPa61%
15-Jun-2024 03:00Clear Sky28°C13 mph, SE1%10000m1012hPa75%
15-Jun-2024 06:00Clear Sky28°C11 mph, SE3%10000m1012hPa75%
15-Jun-2024 09:00Clear Sky27°C7 mph, SE1%10000m1011hPa79%
15-Jun-2024 12:00Clear Sky27°C7 mph, SE4%10000m1011hPa78%
15-Jun-2024 15:00Broken Clouds31°C9 mph, SE63%10000m1012hPa54%
15-Jun-2024 18:00Scattered Clouds34°C13 mph, E49%10000m1011hPa46%
15-Jun-2024 21:00Clear Sky33°C16 mph, E3%10000m1010hPa52%
16-Jun-2024 00:00Clear Sky31°C16 mph, E6%10000m1009hPa64%
16-Jun-2024 03:00Clear Sky28°C16 mph, SE8%10000m1010hPa78%
16-Jun-2024 06:00Clear Sky28°C13 mph, SE5%10000m1010hPa79%
16-Jun-2024 09:00Clear Sky28°C11 mph, SE2%10000m1010hPa79%
16-Jun-2024 12:00Light Rain28°C9 mph, SE45%10000m1010hPa74%
16-Jun-2024 15:00Few Clouds32°C16 mph, SE20%10000m1010hPa57%
16-Jun-2024 18:00Light Rain34°C20 mph, SE30%10000m1010hPa53%
16-Jun-2024 21:00Light Rain33°C20 mph, SE34%10000m1009hPa54%
17-Jun-2024 00:00Light Rain30°C20 mph, SE32%10000m1010hPa64%
17-Jun-2024 03:00Few Clouds28°C18 mph, SE14%10000m1010hPa71%
17-Jun-2024 06:00Clear Sky28°C18 mph, SE7%10000m1011hPa72%
17-Jun-2024 09:00Few Clouds28°C16 mph, SE15%10000m1010hPa72%
17-Jun-2024 12:00Few Clouds28°C13 mph, SE18%10000m1010hPa70%
17-Jun-2024 15:00Clear Sky32°C18 mph, SE7%10000m1010hPa52%
17-Jun-2024 18:00Clear Sky33°C20 mph, SE9%10000m1010hPa49%
17-Jun-2024 21:00Light Rain32°C20 mph, SE35%10000m1010hPa57%
18-Jun-2024 00:00Light Rain29°C20 mph, SE27%10000m1010hPa67%